createdAt,value
2019-01-19T00:00:32.508Z,1015.78
2019-01-19T00:01:32.471Z,1015.74
2019-01-19T00:02:32.481Z,1015.77
2019-01-19T00:03:32.586Z,1015.78
2019-01-19T00:04:32.493Z,1015.78
2019-01-19T00:05:32.489Z,1015.78
2019-01-19T00:06:32.513Z,1015.79
2019-01-19T00:07:32.576Z,1015.77
2019-01-19T00:08:32.503Z,1015.78
2019-01-19T00:09:32.576Z,1015.77
2019-01-19T00:10:32.503Z,1015.78
2019-01-19T00:11:32.527Z,1015.72
2019-01-19T00:12:32.519Z,1015.74
2019-01-19T00:13:32.541Z,1015.72
2019-01-19T00:14:32.541Z,1015.74
2019-01-19T00:15:32.515Z,1015.72
2019-01-19T00:16:32.521Z,1015.78
2019-01-19T00:17:32.518Z,1015.81
2019-01-19T00:18:32.603Z,1015.74
2019-01-19T00:19:32.542Z,1015.81
2019-01-19T00:20:32.541Z,1015.74
2019-01-19T00:21:32.534Z,1015.80
2019-01-19T00:22:32.547Z,1015.84
2019-01-19T00:23:32.548Z,1015.77
2019-01-19T00:24:32.555Z,1015.75
2019-01-19T00:25:32.559Z,1015.77
2019-01-19T00:26:32.551Z,1015.77
2019-01-19T00:27:32.549Z,1015.75
2019-01-19T00:28:32.576Z,1015.70
2019-01-19T00:29:32.574Z,1015.73
2019-01-19T00:30:32.557Z,1015.76
2019-01-19T00:31:32.551Z,1015.79
2019-01-19T00:32:32.555Z,1015.73
2019-01-19T00:33:32.560Z,1015.75
2019-01-19T00:34:34.146Z,1015.75
2019-01-19T00:35:32.605Z,1015.77
2019-01-19T00:36:32.563Z,1015.79
2019-01-19T00:37:32.565Z,1015.75
2019-01-19T00:38:32.579Z,1015.71
2019-01-19T00:39:32.581Z,1015.75
2019-01-19T00:40:32.708Z,1015.73
2019-01-19T00:41:32.587Z,1015.69
2019-01-19T00:42:32.606Z,1015.75
2019-01-19T00:43:32.602Z,1015.71
2019-01-19T00:44:32.599Z,1015.73
2019-01-19T00:45:32.597Z,1015.74
2019-01-19T00:46:32.683Z,1015.76
2019-01-19T00:47:32.608Z,1015.73
2019-01-19T00:48:32.594Z,1015.74
2019-01-19T00:49:32.622Z,1015.74
2019-01-19T00:50:32.617Z,1015.71
2019-01-19T00:51:32.614Z,1015.68
2019-01-19T00:52:32.647Z,1015.67
2019-01-19T00:53:32.611Z,1015.72
2019-01-19T00:54:32.613Z,1015.72
2019-01-19T00:55:32.610Z,1015.72
2019-01-19T00:56:32.625Z,1015.68
2019-01-19T00:57:32.623Z,1015.70
2019-01-19T00:58:32.644Z,1015.72
2019-01-19T00:59:32.627Z,1015.68
2019-01-19T01:00:32.634Z,1015.70
2019-01-19T01:01:32.653Z,1015.73
2019-01-19T01:02:32.686Z,1015.74
2019-01-19T01:03:32.666Z,1015.76
2019-01-19T01:04:32.631Z,1015.73
2019-01-19T01:05:32.644Z,1015.68
2019-01-19T01:06:32.641Z,1015.69
2019-01-19T01:07:32.730Z,1015.72
2019-01-19T01:08:32.655Z,1015.74
2019-01-19T01:09:32.666Z,1015.73
2019-01-19T01:10:32.665Z,1015.77
2019-01-19T01:11:32.664Z,1015.77
2019-01-19T01:12:32.655Z,1015.78
2019-01-19T01:13:32.701Z,1015.80
2019-01-19T01:14:32.679Z,1015.77
2019-01-19T01:15:32.659Z,1015.76
2019-01-19T01:16:32.665Z,1015.77
2019-01-19T01:17:32.682Z,1015.74
2019-01-19T01:18:32.705Z,1015.72
2019-01-19T01:19:32.686Z,1015.76
2019-01-19T01:20:32.682Z,1015.75
2019-01-19T01:21:32.696Z,1015.72
2019-01-19T01:22:32.690Z,1015.76
2019-01-19T01:23:32.713Z,1015.76
2019-01-19T01:24:32.750Z,1015.77
2019-01-19T01:25:32.698Z,1015.76
2019-01-19T01:26:32.704Z,1015.77
2019-01-19T01:27:32.712Z,1015.78
2019-01-19T01:28:32.694Z,1015.76
2019-01-19T01:29:32.715Z,1015.78
2019-01-19T01:30:32.749Z,1015.81
2019-01-19T01:31:32.714Z,1015.79
2019-01-19T01:32:32.720Z,1015.80
2019-01-19T01:33:32.715Z,1015.79
2019-01-19T01:34:32.719Z,1015.79
2019-01-19T01:35:33.047Z,1015.81
2019-01-19T01:36:32.717Z,1015.79
2019-01-19T01:37:32.730Z,1015.81
2019-01-19T01:38:32.733Z,1015.86
2019-01-19T01:39:32.758Z,1015.79
2019-01-19T01:40:32.729Z,1015.77
2019-01-19T01:41:32.729Z,1015.78
2019-01-19T01:42:32.733Z,1015.82
2019-01-19T01:43:32.730Z,1015.80
2019-01-19T01:44:32.733Z,1015.80
2019-01-19T01:45:32.782Z,1015.83
2019-01-19T01:46:32.752Z,1015.79
2019-01-19T01:47:32.731Z,1015.77
2019-01-19T01:48:32.747Z,1015.81
2019-01-19T01:49:32.751Z,1015.76
2019-01-19T01:50:32.768Z,1015.80
2019-01-19T01:51:32.769Z,1015.78
2019-01-19T01:52:32.767Z,1015.79
2019-01-19T01:53:32.760Z,1015.81
2019-01-19T01:54:32.762Z,1015.76
2019-01-19T01:55:32.788Z,1015.76
2019-01-19T01:56:32.783Z,1015.79
2019-01-19T01:57:32.778Z,1015.75
2019-01-19T01:58:32.759Z,1015.75
2019-01-19T01:59:32.783Z,1015.77
2019-01-19T02:00:32.766Z,1015.73
2019-01-19T02:01:32.808Z,1015.77
2019-01-19T02:02:32.789Z,1015.80
2019-01-19T02:03:32.792Z,1015.79
2019-01-19T02:04:32.777Z,1015.78
2019-01-19T02:05:40.052Z,1015.75
2019-01-19T02:06:32.817Z,1015.74
2019-01-19T02:07:32.851Z,1015.72
2019-01-19T02:08:32.797Z,1015.77
2019-01-19T02:09:32.803Z,1015.77
2019-01-19T02:10:32.821Z,1015.72
2019-01-19T02:11:32.797Z,1015.72
2019-01-19T02:12:32.804Z,1015.73
2019-01-19T02:13:32.821Z,1015.71
2019-01-19T02:14:32.863Z,1015.71
2019-01-19T02:15:32.883Z,1015.70
2019-01-19T02:16:32.823Z,1015.71
2019-01-19T02:17:32.832Z,1015.73
2019-01-19T02:18:32.852Z,1015.72
2019-01-19T02:19:32.820Z,1015.68
2019-01-19T02:20:32.842Z,1015.71
2019-01-19T02:21:32.873Z,1015.73
2019-01-19T02:22:32.823Z,1015.69
2019-01-19T02:23:32.881Z,1015.75
2019-01-19T02:24:32.926Z,1015.69
2019-01-19T02:25:32.844Z,1015.67
2019-01-19T02:26:32.844Z,1015.68
2019-01-19T02:27:32.875Z,1015.71
2019-01-19T02:28:32.862Z,1015.70
2019-01-19T02:29:32.865Z,1015.76
2019-01-19T02:30:32.862Z,1015.70
2019-01-19T02:31:32.898Z,1015.70
2019-01-19T02:32:32.939Z,1015.67
2019-01-19T02:33:32.908Z,1015.66
2019-01-19T02:34:32.871Z,1015.67
2019-01-19T02:35:32.854Z,1015.65
2019-01-19T02:36:32.973Z,1015.66
2019-01-19T02:37:32.858Z,1015.64
2019-01-19T02:38:32.883Z,1015.66
2019-01-19T02:39:32.873Z,1015.68
2019-01-19T02:40:32.872Z,1015.67
2019-01-19T02:41:32.920Z,1015.69
2019-01-19T02:42:32.880Z,1015.65
2019-01-19T02:43:32.870Z,1015.66
2019-01-19T02:44:32.895Z,1015.67
2019-01-19T02:45:32.889Z,1015.68
2019-01-19T02:46:32.922Z,1015.62
2019-01-19T02:47:32.966Z,1015.65
2019-01-19T02:48:32.987Z,1015.66
2019-01-19T02:49:32.899Z,1015.66
2019-01-19T02:50:32.892Z,1015.65
2019-01-19T02:51:32.905Z,1015.65
2019-01-19T02:52:32.906Z,1015.66
2019-01-19T02:53:32.931Z,1015.71
2019-01-19T02:54:32.930Z,1015.62
2019-01-19T02:55:32.912Z,1015.67
2019-01-19T02:56:32.904Z,1015.68
2019-01-19T02:57:32.920Z,1015.67
2019-01-19T02:58:32.941Z,1015.71
2019-01-19T02:59:32.946Z,1015.68
2019-01-19T03:00:32.931Z,1015.68
2019-01-19T03:01:32.935Z,1015.64
2019-01-19T03:02:32.925Z,1015.67
2019-01-19T03:03:32.925Z,1015.69
2019-01-19T03:04:32.991Z,1015.66
2019-01-19T03:05:32.935Z,1015.67
2019-01-19T03:06:32.941Z,1015.68
2019-01-19T03:07:32.936Z,1015.68
2019-01-19T03:08:32.978Z,1015.67
2019-01-19T03:09:32.930Z,1015.63
2019-01-19T03:10:33.002Z,1015.63
2019-01-19T03:11:32.942Z,1015.66
2019-01-19T03:12:32.972Z,1015.59
2019-01-19T03:13:32.950Z,1015.60
2019-01-19T03:14:32.961Z,1015.58
2019-01-19T03:15:33.016Z,1015.54
2019-01-19T03:16:32.954Z,1015.57
2019-01-19T03:17:32.969Z,1015.59
2019-01-19T03:18:32.962Z,1015.61
2019-01-19T03:19:32.988Z,1015.58
2019-01-19T03:20:33.063Z,1015.56
2019-01-19T03:21:32.969Z,1015.56
2019-01-19T03:22:32.972Z,1015.61
2019-01-19T03:23:32.972Z,1015.59
2019-01-19T03:24:32.984Z,1015.60
2019-01-19T03:25:32.987Z,1015.60
2019-01-19T03:26:33.042Z,1015.61
2019-01-19T03:27:32.975Z,1015.58
2019-01-19T03:28:32.985Z,1015.56
2019-01-19T03:29:32.992Z,1015.56
2019-01-19T03:30:33.066Z,1015.56
2019-01-19T03:31:33.053Z,1015.59
2019-01-19T03:32:33.000Z,1015.54
2019-01-19T03:33:32.997Z,1015.56
2019-01-19T03:34:33.037Z,1015.55
2019-01-19T03:35:33.004Z,1015.55
2019-01-19T03:36:33.006Z,1015.58
2019-01-19T03:37:33.078Z,1015.56
2019-01-19T03:38:33.014Z,1015.57
2019-01-19T03:39:32.997Z,1015.59
2019-01-19T03:40:33.013Z,1015.58
2019-01-19T03:41:33.033Z,1015.63
2019-01-19T03:42:33.071Z,1015.61
2019-01-19T03:43:33.012Z,1015.62
2019-01-19T03:44:33.009Z,1015.62
2019-01-19T03:45:33.019Z,1015.60
2019-01-19T03:46:33.038Z,1015.59
2019-01-19T03:47:33.032Z,1015.58
2019-01-19T03:48:33.052Z,1015.61
2019-01-19T03:49:33.030Z,1015.57
2019-01-19T03:50:33.027Z,1015.60
2019-01-19T03:51:33.046Z,1015.62
2019-01-19T03:52:33.042Z,1015.60
2019-01-19T03:53:33.050Z,1015.64
2019-01-19T03:54:33.038Z,1015.65
2019-01-19T03:55:33.031Z,1015.62
2019-01-19T03:56:33.051Z,1015.63
2019-01-19T03:57:33.052Z,1015.62
2019-01-19T03:58:33.068Z,1015.62
2019-01-19T03:59:33.044Z,1015.62
2019-01-19T04:00:33.052Z,1015.57
2019-01-19T04:01:33.092Z,1015.61
2019-01-19T04:02:33.061Z,1015.61
2019-01-19T04:03:33.095Z,1015.66
2019-01-19T04:04:33.061Z,1015.62
2019-01-19T04:05:33.059Z,1015.61
2019-01-19T04:06:33.066Z,1015.65
2019-01-19T04:07:33.078Z,1015.65
2019-01-19T04:08:33.120Z,1015.65
2019-01-19T04:09:33.099Z,1015.66
2019-01-19T04:10:33.077Z,1015.70
2019-01-19T04:11:33.079Z,1015.72
2019-01-19T04:12:33.067Z,1015.71
2019-01-19T04:13:33.075Z,1015.76
2019-01-19T04:14:33.090Z,1015.75
2019-01-19T04:15:33.157Z,1015.78
2019-01-19T04:16:33.089Z,1015.76
2019-01-19T04:17:33.091Z,1015.76
2019-01-19T04:18:33.082Z,1015.73
2019-01-19T04:19:33.086Z,1015.74
2019-01-19T04:20:33.095Z,1015.73
2019-01-19T04:21:33.112Z,1015.71
2019-01-19T04:22:33.120Z,1015.72
2019-01-19T04:23:33.112Z,1015.70
2019-01-19T04:24:33.102Z,1015.75
2019-01-19T04:25:33.106Z,1015.76
2019-01-19T04:26:33.102Z,1015.72
2019-01-19T04:27:33.119Z,1015.73
2019-01-19T04:28:33.119Z,1015.68
2019-01-19T04:29:33.121Z,1015.69
2019-01-19T04:30:33.116Z,1015.70
2019-01-19T04:31:33.118Z,1015.69
2019-01-19T04:32:33.162Z,1015.68
2019-01-19T04:33:33.127Z,1015.65
2019-01-19T04:34:33.114Z,1015.70
2019-01-19T04:35:33.125Z,1015.65
2019-01-19T04:36:33.138Z,1015.70
2019-01-19T04:37:33.143Z,1015.67
2019-01-19T04:38:33.696Z,1015.69
2019-01-19T04:39:33.128Z,1015.65
2019-01-19T04:40:33.174Z,1015.67
2019-01-19T04:41:33.152Z,1015.68
2019-01-19T04:42:33.148Z,1015.67
2019-01-19T04:43:33.174Z,1015.67
2019-01-19T04:44:33.184Z,1015.67
2019-01-19T04:45:33.137Z,1015.66
2019-01-19T04:46:33.143Z,1015.71
2019-01-19T04:47:33.158Z,1015.72
2019-01-19T04:48:33.157Z,1015.72
2019-01-19T04:49:33.185Z,1015.71
2019-01-19T04:50:33.169Z,1015.73
2019-01-19T04:51:33.168Z,1015.75
2019-01-19T04:52:33.201Z,1015.75
2019-01-19T04:53:33.161Z,1015.77
2019-01-19T04:54:33.170Z,1015.77
2019-01-19T04:55:33.168Z,1015.79
2019-01-19T04:56:33.172Z,1015.75
2019-01-19T04:57:33.190Z,1015.72
2019-01-19T04:58:33.199Z,1015.73
2019-01-19T04:59:33.182Z,1015.72
2019-01-19T05:00:33.177Z,1015.71
2019-01-19T05:01:33.183Z,1015.67
2019-01-19T05:02:33.192Z,1015.70
2019-01-19T05:03:33.233Z,1015.68
2019-01-19T05:04:33.216Z,1015.69
2019-01-19T05:05:33.207Z,1015.69
2019-01-19T05:06:33.187Z,1015.65
2019-01-19T05:07:33.205Z,1015.69
2019-01-19T05:08:33.195Z,1015.69
2019-01-19T05:09:33.224Z,1015.71
2019-01-19T05:10:33.198Z,1015.67
2019-01-19T05:11:33.204Z,1015.63
2019-01-19T05:12:33.204Z,1015.65
2019-01-19T05:13:33.211Z,1015.60
2019-01-19T05:14:33.238Z,1015.62
2019-01-19T05:15:33.269Z,1015.61
2019-01-19T05:16:33.216Z,1015.62
2019-01-19T05:17:33.244Z,1015.58
2019-01-19T05:18:33.211Z,1015.61
2019-01-19T05:19:33.332Z,1015.60
2019-01-19T05:20:33.278Z,1015.61
2019-01-19T05:21:33.255Z,1015.64
2019-01-19T05:22:33.233Z,1015.63
2019-01-19T05:23:33.238Z,1015.65
2019-01-19T05:24:33.245Z,1015.66
2019-01-19T05:25:33.256Z,1015.63
2019-01-19T05:26:33.251Z,1015.64
2019-01-19T05:27:33.261Z,1015.66
2019-01-19T05:28:33.238Z,1015.68
2019-01-19T05:29:33.243Z,1015.64
2019-01-19T05:30:33.238Z,1015.64
2019-01-19T05:31:33.299Z,1015.71
2019-01-19T05:32:33.260Z,1015.66
2019-01-19T05:33:33.275Z,1015.63
2019-01-19T05:34:33.260Z,1015.65
2019-01-19T05:35:33.261Z,1015.63
2019-01-19T05:36:38.256Z,1015.62
2019-01-19T05:37:33.263Z,1015.65
2019-01-19T05:38:33.287Z,1015.61
2019-01-19T05:39:33.272Z,1015.64
2019-01-19T05:40:33.273Z,1015.64
2019-01-19T05:41:33.277Z,1015.63
2019-01-19T05:42:33.324Z,1015.65
2019-01-19T05:43:33.265Z,1015.59
2019-01-19T05:44:33.277Z,1015.62
2019-01-19T05:45:33.334Z,1015.60
2019-01-19T05:46:33.274Z,1015.64
2019-01-19T05:47:33.267Z,1015.60
2019-01-19T05:48:33.348Z,1015.62
2019-01-19T05:49:33.283Z,1015.62
2019-01-19T05:50:33.294Z,1015.64
2019-01-19T05:51:33.296Z,1015.60
2019-01-19T05:52:33.278Z,1015.63
2019-01-19T05:53:33.309Z,1015.62
2019-01-19T05:54:33.325Z,1015.62
2019-01-19T05:55:33.314Z,1015.64
2019-01-19T05:56:33.312Z,1015.65
2019-01-19T05:57:33.349Z,1015.64
2019-01-19T05:58:33.304Z,1015.66
2019-01-19T05:59:33.301Z,1015.67
2019-01-19T06:00:33.321Z,1015.67
2019-01-19T06:01:33.331Z,1015.66
2019-01-19T06:02:33.320Z,1015.66
2019-01-19T06:03:33.361Z,1015.68
2019-01-19T06:04:33.317Z,1015.71
2019-01-19T06:05:33.328Z,1015.69
2019-01-19T06:06:33.342Z,1015.66
2019-01-19T06:07:33.319Z,1015.68
2019-01-19T06:08:33.314Z,1015.71
2019-01-19T06:09:33.359Z,1015.69
2019-01-19T06:10:33.323Z,1015.68
2019-01-19T06:11:33.318Z,1015.73
2019-01-19T06:12:33.347Z,1015.72
2019-01-19T06:13:33.329Z,1015.76
2019-01-19T06:14:33.365Z,1015.77
2019-01-19T06:15:33.360Z,1015.73
2019-01-19T06:16:33.343Z,1015.76
2019-01-19T06:17:33.332Z,1015.76
2019-01-19T06:18:33.329Z,1015.78
2019-01-19T06:19:33.337Z,1015.70
2019-01-19T06:20:33.356Z,1015.73
2019-01-19T06:21:33.392Z,1015.73
2019-01-19T06:22:33.381Z,1015.74
2019-01-19T06:23:33.346Z,1015.74
2019-01-19T06:24:33.363Z,1015.73
2019-01-19T06:25:33.382Z,1015.72
2019-01-19T06:26:33.437Z,1015.73
2019-01-19T06:27:33.362Z,1015.75
2019-01-19T06:28:33.362Z,1015.76
2019-01-19T06:29:33.369Z,1015.81
2019-01-19T06:30:33.374Z,1015.77
2019-01-19T06:31:33.421Z,1015.75
2019-01-19T06:32:33.494Z,1015.72
2019-01-19T06:33:33.397Z,1015.73
2019-01-19T06:34:33.379Z,1015.73
2019-01-19T06:35:33.402Z,1015.78
2019-01-19T06:36:33.386Z,1015.78
2019-01-19T06:37:33.382Z,1015.78
2019-01-19T06:38:33.414Z,1015.80
2019-01-19T06:39:33.416Z,1015.78
2019-01-19T06:40:33.397Z,1015.80
2019-01-19T06:41:33.385Z,1015.79
2019-01-19T06:42:33.438Z,1015.80
2019-01-19T06:43:33.398Z,1015.80
2019-01-19T06:44:33.412Z,1015.79
2019-01-19T06:45:33.477Z,1015.81
2019-01-19T06:46:33.413Z,1015.80
2019-01-19T06:47:33.447Z,1015.78
2019-01-19T06:48:33.422Z,1015.83
2019-01-19T06:49:33.425Z,1015.77
2019-01-19T06:50:33.410Z,1015.80
2019-01-19T06:51:33.431Z,1015.80
2019-01-19T06:52:33.411Z,1015.84
2019-01-19T06:53:33.496Z,1015.82
2019-01-19T06:54:33.437Z,1015.85
2019-01-19T06:55:33.422Z,1015.83
2019-01-19T06:56:33.446Z,1015.83
2019-01-19T06:57:33.434Z,1015.85
2019-01-19T06:58:33.430Z,1015.84
2019-01-19T06:59:33.448Z,1015.86
2019-01-19T07:00:33.453Z,1015.86
2019-01-19T07:01:33.443Z,1015.88
2019-01-19T07:02:33.434Z,1015.83
2019-01-19T07:03:33.467Z,1015.89
2019-01-19T07:04:33.499Z,1015.88
2019-01-19T07:05:33.453Z,1015.88
2019-01-19T07:06:33.448Z,1015.86
2019-01-19T07:07:33.463Z,1015.88
2019-01-19T07:08:33.464Z,1015.89
2019-01-19T07:09:33.485Z,1015.88
2019-01-19T07:10:33.488Z,1015.90
2019-01-19T07:11:33.468Z,1015.89
2019-01-19T07:12:33.474Z,1015.91
2019-01-19T07:13:33.483Z,1015.92
2019-01-19T07:14:33.533Z,1015.92
2019-01-19T07:15:33.468Z,1015.96
2019-01-19T07:16:33.474Z,1015.92
2019-01-19T07:17:33.482Z,1015.93
2019-01-19T07:18:33.487Z,1015.93
2019-01-19T07:19:33.515Z,1015.92
2019-01-19T07:20:33.549Z,1015.97
2019-01-19T07:21:33.508Z,1015.90
2019-01-19T07:22:33.496Z,1015.98
2019-01-19T07:23:33.511Z,1015.97
2019-01-19T07:24:33.516Z,1015.99
2019-01-19T07:25:33.498Z,1016.01
2019-01-19T07:26:33.526Z,1016.00
2019-01-19T07:27:33.506Z,1015.99
2019-01-19T07:28:33.519Z,1016.00
2019-01-19T07:29:33.515Z,1016.02
2019-01-19T07:30:33.507Z,1016.02
2019-01-19T07:31:33.533Z,1016.05
2019-01-19T07:32:33.537Z,1016.05
2019-01-19T07:33:33.519Z,1016.07
2019-01-19T07:34:33.525Z,1016.12
2019-01-19T07:35:33.585Z,1016.12
2019-01-19T07:36:33.522Z,1016.12
2019-01-19T07:37:33.526Z,1016.10
2019-01-19T07:38:33.577Z,1016.13
2019-01-19T07:39:33.545Z,1016.11
2019-01-19T07:40:33.558Z,1016.11
2019-01-19T07:41:33.561Z,1016.13
2019-01-19T07:42:34.026Z,1016.14
2019-01-19T07:43:33.692Z,1016.15
2019-01-19T07:44:33.547Z,1016.17
2019-01-19T07:45:33.560Z,1016.19
2019-01-19T07:46:33.554Z,1016.16
2019-01-19T07:47:33.582Z,1016.22
2019-01-19T07:48:33.562Z,1016.22
2019-01-19T07:49:33.742Z,1016.21
2019-01-19T07:50:33.554Z,1016.24
2019-01-19T07:51:33.584Z,1016.24
2019-01-19T07:52:33.593Z,1016.23
2019-01-19T07:53:33.602Z,1016.25
2019-01-19T07:54:33.629Z,1016.22
2019-01-19T07:55:33.592Z,1016.23
2019-01-19T07:56:33.576Z,1016.26
2019-01-19T07:57:33.583Z,1016.28
2019-01-19T07:58:33.572Z,1016.26
2019-01-19T07:59:33.643Z,1016.26
2019-01-19T08:00:33.607Z,1016.29
2019-01-19T08:01:33.580Z,1016.31
2019-01-19T08:02:33.589Z,1016.29
2019-01-19T08:03:33.621Z,1016.28
2019-01-19T08:04:33.807Z,1016.27
2019-01-19T08:05:33.664Z,1016.28
2019-01-19T08:06:33.630Z,1016.31
2019-01-19T08:07:33.605Z,1016.30
2019-01-19T08:08:33.636Z,1016.30
2019-01-19T08:09:33.604Z,1016.29
2019-01-19T08:10:33.648Z,1016.28
2019-01-19T08:11:33.605Z,1016.28
2019-01-19T08:12:33.624Z,1016.27
2019-01-19T08:13:33.729Z,1016.29
2019-01-19T08:14:35.556Z,1016.31
2019-01-19T08:15:33.853Z,1016.33
2019-01-19T08:16:33.659Z,1016.34
2019-01-19T08:17:33.654Z,1016.33
2019-01-19T08:18:33.633Z,1016.30
2019-01-19T08:19:33.790Z,1016.31
2019-01-19T08:20:33.737Z,1016.32
2019-01-19T08:21:34.090Z,1016.32
2019-01-19T08:22:33.851Z,1016.30
2019-01-19T08:23:33.742Z,1016.35
2019-01-19T08:24:33.840Z,1016.34
2019-01-19T08:25:33.654Z,1016.35
2019-01-19T08:26:33.645Z,1016.40
2019-01-19T08:27:33.674Z,1016.36
2019-01-19T08:28:33.662Z,1016.41
2019-01-19T08:29:33.674Z,1016.40
2019-01-19T08:30:33.687Z,1016.41
2019-01-19T08:31:33.690Z,1016.42
2019-01-19T08:32:33.672Z,1016.43
2019-01-19T08:33:33.659Z,1016.41
2019-01-19T08:34:33.674Z,1016.41
2019-01-19T08:35:33.818Z,1016.41
2019-01-19T08:36:33.732Z,1016.37
2019-01-19T08:37:33.810Z,1016.44
2019-01-19T08:38:33.702Z,1016.42
2019-01-19T08:39:33.696Z,1016.45
2019-01-19T08:40:33.696Z,1016.46
2019-01-19T08:41:33.718Z,1016.44
2019-01-19T08:42:33.712Z,1016.43
2019-01-19T08:43:33.722Z,1016.44
2019-01-19T08:44:33.685Z,1016.44
2019-01-19T08:45:33.683Z,1016.43
2019-01-19T08:46:33.761Z,1016.49
2019-01-19T08:47:33.727Z,1016.46
2019-01-19T08:48:33.710Z,1016.46
2019-01-19T08:49:33.728Z,1016.51
2019-01-19T08:50:33.736Z,1016.49
2019-01-19T08:51:33.746Z,1016.46
2019-01-19T08:52:33.701Z,1016.51
2019-01-19T08:53:33.699Z,1016.54
2019-01-19T08:54:33.716Z,1016.52
2019-01-19T08:55:33.708Z,1016.54
2019-01-19T08:56:33.815Z,1016.55
2019-01-19T08:57:33.754Z,1016.54
2019-01-19T08:58:33.755Z,1016.56
2019-01-19T08:59:33.738Z,1016.55
2019-01-19T09:00:33.723Z,1016.53
2019-01-19T09:01:33.746Z,1016.54
2019-01-19T09:02:33.781Z,1016.53
2019-01-19T09:03:33.724Z,1016.52
2019-01-19T09:04:33.832Z,1016.56
2019-01-19T09:05:35.047Z,1016.50
2019-01-19T09:06:33.739Z,1016.56
2019-01-19T09:07:34.228Z,1016.53
2019-01-19T09:08:33.844Z,1016.54
2019-01-19T09:09:33.735Z,1016.52
2019-01-19T09:10:33.797Z,1016.52
2019-01-19T09:11:33.759Z,1016.54
2019-01-19T09:12:33.758Z,1016.50
2019-01-19T09:13:33.750Z,1016.54
2019-01-19T09:14:33.767Z,1016.51
2019-01-19T09:15:33.749Z,1016.54
2019-01-19T09:16:39.580Z,1016.56
2019-01-19T09:17:33.761Z,1016.59
2019-01-19T09:18:34.442Z,1016.54
2019-01-19T09:19:46.165Z,1016.55
2019-01-19T09:20:33.758Z,1016.56
2019-01-19T09:21:33.830Z,1016.51
2019-01-19T09:22:33.782Z,1016.56
2019-01-19T09:23:33.826Z,1016.53
2019-01-19T09:24:33.838Z,1016.52
2019-01-19T09:25:33.814Z,1016.52
2019-01-19T09:26:33.789Z,1016.52
2019-01-19T09:27:33.781Z,1016.53
2019-01-19T09:28:33.796Z,1016.53
2019-01-19T09:29:33.912Z,1016.54
2019-01-19T09:30:33.836Z,1016.53
2019-01-19T09:31:33.829Z,1016.51
2019-01-19T09:32:33.824Z,1016.52
2019-01-19T09:33:33.791Z,1016.48
2019-01-19T09:34:34.109Z,1016.49
2019-01-19T09:35:33.861Z,1016.46
2019-01-19T09:36:33.802Z,1016.49
2019-01-19T09:37:40.658Z,1016.49
2019-01-19T09:38:33.822Z,1016.53
2019-01-19T09:39:33.839Z,1016.52
2019-01-19T09:40:33.887Z,1016.53
2019-01-19T09:41:33.828Z,1016.52
2019-01-19T09:42:33.824Z,1016.52
2019-01-19T09:43:33.829Z,1016.53
2019-01-19T09:44:33.814Z,1016.51
2019-01-19T09:45:33.835Z,1016.50
2019-01-19T09:46:33.870Z,1016.46
2019-01-19T09:47:33.844Z,1016.46
2019-01-19T09:48:33.913Z,1016.46
2019-01-19T09:49:33.845Z,1016.47
2019-01-19T09:50:33.856Z,1016.50
2019-01-19T09:51:33.905Z,1016.47
2019-01-19T09:52:33.878Z,1016.49
2019-01-19T09:53:33.866Z,1016.48
2019-01-19T09:54:33.881Z,1016.49
2019-01-19T09:55:33.854Z,1016.48
2019-01-19T09:56:33.869Z,1016.43
2019-01-19T09:57:33.866Z,1016.41
2019-01-19T09:58:33.858Z,1016.44
2019-01-19T09:59:33.853Z,1016.46
2019-01-19T10:00:37.538Z,1016.43
2019-01-19T10:01:33.865Z,1016.50
2019-01-19T10:02:33.884Z,1016.47
2019-01-19T10:03:33.892Z,1016.46
2019-01-19T10:04:33.880Z,1016.49
2019-01-19T10:05:33.877Z,1016.48
2019-01-19T10:06:33.882Z,1016.49
2019-01-19T10:07:33.935Z,1016.45
2019-01-19T10:08:33.886Z,1016.50
2019-01-19T10:09:33.882Z,1016.48
2019-01-19T10:10:33.912Z,1016.49
2019-01-19T10:11:33.900Z,1016.49
2019-01-19T10:12:33.947Z,1016.47
2019-01-19T10:13:33.905Z,1016.41
2019-01-19T10:14:33.920Z,1016.42
2019-01-19T10:15:33.897Z,1016.46
2019-01-19T10:16:33.897Z,1016.43
2019-01-19T10:17:33.900Z,1016.43
2019-01-19T10:18:33.940Z,1016.46
2019-01-19T10:19:33.909Z,1016.44
2019-01-19T10:20:33.968Z,1016.46
2019-01-19T10:21:33.939Z,1016.49
2019-01-19T10:22:33.930Z,1016.49
2019-01-19T10:23:33.963Z,1016.49
2019-01-19T10:24:33.927Z,1016.49
2019-01-19T10:25:33.929Z,1016.48
2019-01-19T10:26:33.976Z,1016.50
2019-01-19T10:27:37.539Z,1016.47
2019-01-19T10:28:33.992Z,1016.47
2019-01-19T10:29:33.936Z,1016.45
2019-01-19T10:30:33.936Z,1016.48
2019-01-19T10:31:33.949Z,1016.44
2019-01-19T10:32:34.046Z,1016.43
2019-01-19T10:33:33.949Z,1016.47
2019-01-19T10:34:33.963Z,1016.43
2019-01-19T10:35:33.954Z,1016.42
2019-01-19T10:36:33.979Z,1016.43
2019-01-19T10:37:34.059Z,1016.45
2019-01-19T10:38:33.994Z,1016.44
2019-01-19T10:39:33.977Z,1016.44
2019-01-19T10:40:34.004Z,1016.43
2019-01-19T10:41:40.642Z,1016.40
2019-01-19T10:42:33.983Z,1016.40
2019-01-19T10:43:34.047Z,1016.37
2019-01-19T10:44:33.992Z,1016.35
2019-01-19T10:45:34.045Z,1016.37
2019-01-19T10:46:34.253Z,1016.34
2019-01-19T10:47:34.026Z,1016.35
2019-01-19T10:48:34.040Z,1016.33
2019-01-19T10:49:34.028Z,1016.35
2019-01-19T10:50:33.996Z,1016.34
2019-01-19T10:51:34.022Z,1016.34
2019-01-19T10:52:34.021Z,1016.34
2019-01-19T10:53:33.991Z,1016.33
2019-01-19T10:54:34.023Z,1016.35
2019-01-19T10:55:34.018Z,1016.35
2019-01-19T10:56:34.062Z,1016.33
2019-01-19T10:57:34.075Z,1016.33
2019-01-19T10:58:34.018Z,1016.29
2019-01-19T10:59:34.101Z,1016.27
2019-01-19T11:00:34.017Z,1016.23
2019-01-19T11:01:34.104Z,1016.24
2019-01-19T11:02:34.039Z,1016.24
2019-01-19T11:03:34.118Z,1016.24
2019-01-19T11:04:34.036Z,1016.23
2019-01-19T11:05:34.075Z,1016.22
2019-01-19T11:06:34.507Z,1016.21
2019-01-19T11:07:34.282Z,1016.23
2019-01-19T11:08:34.060Z,1016.22
2019-01-19T11:09:34.033Z,1016.22
2019-01-19T11:10:34.056Z,1016.19
2019-01-19T11:11:34.057Z,1016.19
2019-01-19T11:12:34.085Z,1016.16
2019-01-19T11:13:34.046Z,1016.13
2019-01-19T11:14:34.054Z,1016.12
2019-01-19T11:15:34.194Z,1016.12
2019-01-19T11:16:34.079Z,1016.10
2019-01-19T11:17:34.121Z,1016.10
2019-01-19T11:18:34.183Z,1016.13
2019-01-19T11:19:34.072Z,1016.08
2019-01-19T11:20:34.078Z,1016.11
2019-01-19T11:21:34.101Z,1016.10
2019-01-19T11:22:34.130Z,1016.10
2019-01-19T11:23:39.773Z,1016.12
2019-01-19T11:24:34.102Z,1016.10
2019-01-19T11:25:34.104Z,1016.09
2019-01-19T11:26:34.106Z,1016.11
2019-01-19T11:27:34.098Z,1016.07
2019-01-19T11:28:34.171Z,1016.07
2019-01-19T11:29:34.109Z,1016.09
2019-01-19T11:30:34.105Z,1016.08
2019-01-19T11:31:34.106Z,1016.02
2019-01-19T11:32:34.125Z,1016.01
2019-01-19T11:33:34.248Z,1016.04
2019-01-19T11:34:34.121Z,1016.01
2019-01-19T11:35:34.160Z,1015.97
2019-01-19T11:36:34.131Z,1015.96
2019-01-19T11:37:34.140Z,1015.94
2019-01-19T11:38:34.126Z,1015.92
2019-01-19T11:39:34.463Z,1015.90
2019-01-19T11:40:34.169Z,1015.90
2019-01-19T11:41:34.180Z,1015.88
2019-01-19T11:42:34.131Z,1015.87
2019-01-19T11:43:34.144Z,1015.84
2019-01-19T11:44:34.145Z,1015.83
2019-01-19T11:45:34.174Z,1015.79
2019-01-19T11:46:34.161Z,1015.81
2019-01-19T11:47:34.242Z,1015.80
2019-01-19T11:48:34.146Z,1015.81
2019-01-19T11:49:34.161Z,1015.75
2019-01-19T11:50:34.267Z,1015.77
2019-01-19T11:51:34.173Z,1015.77
2019-01-19T11:52:34.168Z,1015.77
2019-01-19T11:53:34.173Z,1015.76
2019-01-19T11:54:34.162Z,1015.74
2019-01-19T11:55:34.213Z,1015.75
2019-01-19T11:56:34.241Z,1015.76
2019-01-19T11:57:34.184Z,1015.75
2019-01-19T11:58:34.201Z,1015.71
2019-01-19T11:59:34.199Z,1015.72
2019-01-19T12:00:34.207Z,1015.71
2019-01-19T12:01:34.270Z,1015.73
2019-01-19T12:02:37.125Z,1015.69
2019-01-19T12:03:34.331Z,1015.69
2019-01-19T12:04:34.194Z,1015.71
2019-01-19T12:05:34.212Z,1015.68